ePrivacy and GPDR Cookie Consent by Cookie Consent
EmailTwitter


Observations de surface / Québec / CYUL (71627)

Régions: Québec | Canada | États-Unis | Europe | France | UK | Ailleurs
Station
Affichage
Infos & localisation pour CYUL (71627) | Aide pour décoder les METARs

Observations prises le 2023-01-28 à 09H49 UTC à MONTREAL INTL A, QB (CYUL)

Etat du ciel: couvert.

Obstacle(s) à la visibilité: faible neige.

Température: -2.0 Celsius

Point de rosée: -4.0 Celsius

Humidité relative: 86%

Facteur vent: -8.

Facteur vent (rafales): -9.

Vents: Sud à 19 km/h ou 10 noeuds.

Rafale du vent: 28 km/h ou 15 noeuds.

Pression au niveau moyen de la mer: 101.21 kilopascals.

Calage altimétrique: 101.18 kilopascals ou 29.88 pouces de mercure.

Visibilité horizontale: 5.00 milles terrestres ou 8.00 kilomètres.

Hauteur du plafond: 1372 mètres ( 4500 pieds ).

Observation METAR:

CYUL 280949Z 18010G15KT 5SM -SN OVC045 M02/M04 A2988 RMK SC8 SLP121=